createdAt,value
2019-03-28T00:01:40.498Z,9.10
2019-03-28T00:11:38.622Z,9.20
2019-03-28T00:16:37.424Z,9.30
2019-03-28T00:29:15.106Z,9.20
2019-03-28T00:34:15.548Z,8.90
2019-03-28T00:39:14.376Z,8.90
2019-03-28T00:46:43.899Z,8.90
2019-03-28T00:57:01.442Z,8.50
2019-03-28T00:59:31.453Z,8.60
2019-03-28T01:04:30.523Z,8.50
2019-03-28T01:07:00.017Z,8.70
2019-03-28T01:11:58.722Z,8.40
2019-03-28T01:14:28.230Z,8.60
2019-03-28T01:19:27.345Z,8.50
2019-03-28T01:21:56.862Z,8.40
2019-03-28T01:26:57.539Z,8.60
2019-03-28T01:29:26.907Z,8.60
2019-03-28T01:31:56.411Z,8.30
2019-03-28T01:34:26.018Z,8.50
2019-03-28T01:39:24.730Z,8.60
2019-03-28T01:56:50.043Z,8.50
2019-03-28T01:59:19.851Z,8.50
2019-03-28T02:01:49.358Z,8.60
2019-03-28T02:06:47.963Z,8.30
2019-03-28T02:11:46.666Z,8.10
2019-03-28T02:26:42.342Z,8.10
2019-03-28T02:29:11.882Z,8.30
2019-03-28T02:34:10.703Z,8.10
2019-03-28T02:36:40.193Z,8.00
2019-03-28T02:41:38.905Z,8.20
2019-03-28T02:49:07.130Z,8.30
2019-03-28T02:51:36.617Z,7.70
2019-03-28T02:59:04.729Z,7.90
2019-03-28T03:04:03.451Z,8.10
2019-03-28T03:06:32.940Z,8.00
2019-03-28T03:11:31.857Z,8.10
2019-03-28T03:14:01.359Z,7.90
2019-03-28T03:16:30.967Z,7.90
2019-03-28T03:21:29.771Z,8.00
2019-03-28T03:28:58.393Z,7.80
2019-03-28T03:31:27.907Z,7.90
2019-03-28T03:48:53.624Z,7.80
2019-03-28T03:56:21.845Z,7.70
2019-03-28T04:01:20.648Z,7.60
2019-03-28T04:03:50.149Z,7.60
2019-03-28T04:08:48.965Z,7.70
2019-03-28T04:11:18.473Z,7.90
2019-03-28T04:16:17.067Z,7.90
2019-03-28T04:21:17.594Z,7.80
2019-03-28T04:26:16.441Z,8.10
2019-03-28T04:36:14.486Z,7.60
2019-03-28T04:46:12.751Z,7.60
2019-03-28T04:51:11.893Z,7.70
2019-03-28T04:58:44.765Z,7.50
2019-03-28T05:09:00.110Z,8.20
2019-03-28T05:11:29.585Z,7.70
2019-03-28T05:16:28.424Z,7.60
2019-03-28T05:26:25.497Z,7.60
2019-03-28T05:28:57.717Z,7.60
2019-03-28T05:31:26.073Z,7.70
2019-03-28T05:36:24.684Z,7.60
2019-03-28T05:38:54.344Z,7.70
2019-03-28T05:48:51.387Z,7.70
2019-03-28T06:01:17.568Z,7.90
2019-03-28T06:03:47.007Z,7.90
2019-03-28T06:08:45.594Z,7.90
2019-03-28T06:11:15.129Z,7.80
2019-03-28T06:13:44.556Z,8.50
2019-03-28T06:18:43.155Z,7.80
2019-03-28T06:26:11.549Z,8.00
2019-03-28T06:28:41.022Z,7.90
2019-03-28T06:36:09.977Z,7.90
2019-03-28T06:38:39.416Z,8.00
2019-03-28T06:43:37.983Z,8.10
2019-03-28T06:46:07.441Z,7.90
2019-03-28T06:53:35.337Z,8.30
2019-03-28T06:58:34.065Z,8.20
2019-03-28T07:03:32.711Z,8.80
2019-03-28T07:11:00.606Z,8.30
2019-03-28T07:13:30.090Z,8.20
2019-03-28T07:23:27.486Z,8.30
2019-03-28T07:30:55.326Z,8.50
2019-03-28T07:43:21.483Z,8.90
2019-03-28T07:50:49.885Z,8.90
2019-03-28T07:53:19.934Z,9.00
2019-03-28T07:55:50.009Z,9.10
2019-03-28T07:58:19.540Z,9.20
2019-03-28T08:00:49.057Z,9.10
2019-03-28T08:05:47.649Z,9.20
2019-03-28T08:10:46.235Z,9.00
2019-03-28T08:23:12.401Z,9.70
2019-03-28T08:25:41.882Z,9.70
2019-03-28T08:30:40.734Z,9.70
2019-03-28T08:38:10.129Z,9.90
2019-03-28T08:53:08.688Z,10.10
2019-03-28T08:58:07.386Z,10.10
2019-03-28T09:00:50.930Z,10.10
2019-03-28T09:05:37.221Z,10.20
2019-03-28T09:08:06.728Z,10.30
2019-03-28T09:15:43.758Z,10.70
2019-03-28T09:23:05.072Z,10.70
2019-03-28T09:28:03.901Z,10.80
2019-03-28T09:30:48.787Z,10.60
2019-03-28T09:35:42.409Z,10.60
2019-03-28T09:38:12.022Z,10.60
2019-03-28T09:40:41.468Z,10.60
2019-03-28T09:48:12.224Z,10.70
2019-03-28T09:58:12.397Z,10.70
2019-03-28T10:00:41.854Z,10.50
2019-03-28T10:05:40.484Z,10.60
2019-03-28T10:08:09.995Z,10.70
2019-03-28T10:18:07.025Z,11.00
2019-03-28T10:30:57.035Z,11.20
2019-03-28T10:33:26.415Z,11.30
2019-03-28T10:45:53.776Z,11.20
2019-03-28T10:48:23.559Z,11.50
2019-03-28T10:50:52.960Z,11.50
2019-03-28T11:00:49.702Z,11.40
2019-03-28T11:05:48.165Z,11.40
2019-03-28T11:20:43.411Z,12.10
2019-03-28T11:25:41.886Z,12.20
2019-03-28T11:38:09.568Z,12.00
2019-03-28T11:48:08.018Z,12.40
2019-03-28T11:50:37.364Z,12.60
2019-03-28T11:53:06.694Z,12.60
2019-03-28T11:58:05.177Z,12.00
2019-03-28T12:00:34.554Z,12.40
2019-03-28T12:10:31.352Z,12.50
2019-03-28T12:22:57.160Z,12.40
2019-03-28T12:27:55.679Z,12.60
2019-03-28T12:30:25.505Z,12.30
2019-03-28T12:32:54.852Z,12.30
2019-03-28T12:35:24.241Z,12.30
2019-03-28T12:37:53.603Z,12.40
2019-03-28T12:47:50.395Z,12.00
2019-03-28T13:00:22.672Z,12.70
2019-03-28T13:02:52.030Z,12.20
2019-03-28T13:17:46.890Z,12.20
2019-03-28T13:20:16.394Z,12.40
2019-03-28T13:27:44.079Z,12.50
2019-03-28T13:30:17.252Z,12.40
2019-03-28T13:32:46.593Z,12.40
2019-03-28T13:37:45.026Z,12.40
2019-03-28T13:45:14.536Z,12.40
2019-03-28T13:50:14.054Z,12.20
2019-03-28T13:52:43.438Z,12.30
2019-03-28T13:55:12.932Z,12.20
2019-03-28T14:00:14.345Z,12.10
2019-03-28T14:02:55.564Z,12.10
2019-03-28T14:07:43.991Z,11.90
2019-03-28T14:12:42.533Z,11.60
2019-03-28T14:17:41.144Z,11.60
2019-03-28T14:20:12.017Z,11.90
2019-03-28T14:27:40.408Z,11.60
2019-03-28T14:30:11.629Z,11.70
2019-03-28T14:35:11.950Z,11.50
2019-03-28T14:45:17.452Z,11.50
2019-03-28T14:47:46.849Z,11.50
2019-03-28T14:57:47.353Z,11.50
2019-03-28T15:00:40.449Z,11.50
2019-03-28T15:05:38.892Z,11.40
2019-03-28T15:10:37.398Z,11.20
2019-03-28T15:13:06.785Z,11.00
2019-03-28T15:18:05.635Z,11.20
2019-03-28T15:20:34.970Z,11.50
2019-03-28T15:25:33.457Z,11.30
2019-03-28T15:30:31.968Z,11.00
2019-03-28T15:33:01.383Z,11.20
2019-03-28T15:37:59.861Z,11.00
2019-03-28T15:40:29.254Z,10.90
2019-03-28T15:55:24.240Z,11.10
2019-03-28T15:57:53.583Z,11.00
2019-03-28T16:02:52.158Z,11.10
2019-03-28T16:07:50.616Z,10.80
2019-03-28T16:12:49.125Z,10.90
2019-03-28T16:15:18.577Z,10.40
2019-03-28T16:20:17.232Z,10.70
2019-03-28T16:35:13.441Z,10.60
2019-03-28T16:37:42.810Z,10.50
2019-03-28T16:45:11.847Z,10.40
2019-03-28T16:47:41.194Z,10.50
2019-03-28T16:50:11.717Z,10.40
2019-03-28T16:52:41.060Z,10.40
2019-03-28T16:57:58.991Z,10.40
2019-03-28T17:05:38.349Z,10.40
2019-03-28T17:10:49.280Z,10.50
2019-03-28T17:30:45.078Z,10.40
2019-03-28T17:40:44.789Z,10.10
2019-03-28T17:45:43.483Z,10.50
2019-03-28T17:53:13.542Z,10.50
2019-03-28T17:58:12.302Z,10.60
2019-03-28T18:00:43.392Z,10.40
2019-03-28T18:05:42.781Z,10.40
2019-03-28T18:15:41.951Z,10.30
2019-03-28T18:18:12.128Z,9.80
2019-03-28T18:30:39.730Z,10.30
2019-03-28T18:33:09.422Z,10.30
2019-03-28T18:35:39.797Z,9.80
2019-03-28T18:38:09.354Z,10.20
2019-03-28T18:43:08.062Z,10.10
2019-03-28T18:45:37.466Z,10.10
2019-03-28T18:50:40.951Z,10.10
2019-03-28T18:53:08.821Z,10.20
2019-03-28T19:03:06.837Z,10.30
2019-03-28T19:10:34.628Z,10.20
2019-03-28T19:15:34.565Z,10.20
2019-03-28T19:20:33.453Z,9.90
2019-03-28T19:30:33.238Z,9.80
2019-03-28T19:45:36.113Z,10.10
2019-03-28T19:48:07.151Z,9.80
2019-03-28T19:55:35.480Z,9.80
2019-03-28T20:03:04.429Z,9.90
2019-03-28T20:05:46.888Z,9.80
2019-03-28T20:10:37.500Z,9.90
2019-03-28T20:25:35.107Z,10.00
2019-03-28T20:28:05.150Z,10.20
2019-03-28T20:30:35.175Z,9.80
2019-03-28T20:33:05.112Z,9.90
2019-03-28T20:45:33.124Z,10.50
2019-03-28T20:48:02.549Z,10.40
2019-03-28T20:53:01.546Z,10.00
2019-03-28T20:55:31.023Z,10.00
2019-03-28T20:58:00.667Z,9.90
2019-03-28T21:03:12.275Z,10.00
2019-03-28T21:08:11.001Z,9.90
2019-03-28T21:13:10.043Z,10.10
2019-03-28T21:15:39.496Z,9.80
2019-03-28T21:18:09.059Z,10.00
2019-03-28T21:28:13.756Z,10.80
2019-03-28T21:30:47.665Z,10.10
2019-03-28T21:38:17.016Z,9.80
2019-03-28T21:43:16.193Z,10.40
2019-03-28T21:45:45.592Z,10.00
2019-03-28T21:50:44.197Z,9.90
2019-03-28T21:53:13.717Z,10.30
2019-03-28T22:03:12.515Z,10.10
2019-03-28T22:05:41.960Z,10.00
2019-03-28T22:10:40.589Z,9.60
2019-03-28T22:13:12.168Z,9.90
2019-03-28T22:15:41.259Z,10.00
2019-03-28T22:25:38.484Z,9.60
2019-03-28T22:30:37.097Z,9.80
2019-03-28T22:33:06.533Z,9.80
2019-03-28T22:38:05.257Z,9.90
2019-03-28T22:45:33.153Z,10.30
2019-03-28T22:58:01.029Z,9.70
2019-03-28T23:10:45.498Z,10.00
2019-03-28T23:18:20.782Z,10.00
2019-03-28T23:23:20.011Z,10.00
2019-03-28T23:28:19.232Z,9.80
2019-03-28T23:33:19.045Z,10.00
2019-03-28T23:35:48.855Z,9.90
2019-03-28T23:43:17.083Z,10.00
2019-03-28T23:45:46.583Z,10.10
2019-03-28T23:58:14.417Z,10.10
